Eships Agamid — ZDHS9 — position and weather

sailwx.info

Track history (hours):
 
Tides and Currents Weather Stations Pressure Air Temp Water Temp Dewpoint Dewpoint Depression Visibility Wind Speed Wind Dir Waves Ship Positions

Eships Agamid

Last reported at 2014-Dec-22 10:26 UTC. Time now 2014-Dec-22 10:39 UTC.
Position N 47°08' W 002°26'.

Length 128 m; draft 6 m.

Type: Tanker. MMSI: 236355000.

Date/timePositionNaut miles runAvg speedWind from/ knotsBaromVisibWave heightAir tempDewpointWater temp
2014-Dec-22 10:26N 47°08' W 002°26'0 0.0
2014-Dec-22 08:14N 47°08' W 002°26'0 0.0
2014-Dec-22 07:25N 47°07' W 002°26'0 0.0
2014-Dec-22 00:26N 47°08' W 002°26'0 0.0
2014-Dec-21 22:12N 47°08' W 002°26'0 0.0
2014-Dec-21 10:07N 47°08' W 002°26'0 0.1
2014-Dec-21 09:33N 47°08' W 002°26'38 6.3
2014-Dec-21 03:33N 46°30' W 002°29'1212.3
2014-Dec-21 02:32N 46°21' W 002°17'1411.3
2014-Dec-21 01:19N 46°10' W 002°04'5610.8
2014-Dec-20 20:10N 45°35' W 001°03'1716.6
2014-Dec-20 19:09N 45°21' W 000°48'1016.3
2014-Dec-20 18:32N 45°12' W 000°44'36 1.0
2014-Dec-19 08:07N 45°37' W 001°19'39 9.8
2014-Dec-19 04:05N 46°06' W 001°59'1711.0
2014-Dec-19 02:31N 46°19' W 002°15'1111.1
2014-Dec-19 01:32N 46°28' W 002°24'1111.2
2014-Dec-19 00:33N 46°37' W 002°34'1211.4
2014-Dec-18 23:27N 46°48' W 002°41'39 4.8
2014-Dec-18 15:26N 47°18' W 002°05'0 0.0
2014-Dec-18 12:04N 47°18' W 002°05'0 0.0
2014-Dec-18 06:09N 47°18' W 002°05'0 0.0
2014-Dec-18 05:26N 47°18' W 002°05'0 0.0
2014-Dec-18 04:31N 47°18' W 002°05'0 0.0
2014-Dec-18 03:11N 47°18' W 002°05'31 1.6
2014-Dec-17 07:12N 46°58' W 002°41'27 8.7
2014-Dec-17 04:05N 46°34' W 002°23'5 9.9
2014-Dec-17 03:33N 46°30' W 002°18'1010.3
2014-Dec-17 02:33N 46°23' W 002°07'1010.2
2014-Dec-17 01:33N 46°16' W 001°56'10 9.8
2014-Dec-17 00:33N 46°10' W 001°45'10 9.6
2014-Dec-16 23:29N 46°07' W 001°31'1010.4
2014-Dec-16 22:33N 46°06' W 001°17'4 2.8
2014-Dec-16 21:10N 46°09' W 001°15'0 0.0
2014-Dec-16 20:33N 46°09' W 001°15'0 0.0
2014-Dec-16 19:33N 46°09' W 001°15'0 0.0
2014-Dec-16 18:33N 46°09' W 001°15'0 0.0
2014-Dec-16 17:33N 46°09' W 001°15'0 0.0
2014-Dec-16 16:33N 46°09' W 001°15'0 0.0
2014-Dec-16 15:33N 46°09' W 001°15'0 0.0
2014-Dec-16 14:33N 46°09' W 001°15'32 1.4
2014-Dec-15 15:11N 46°18' W 001°59'812.8
2014-Dec-15 14:33N 46°24' W 002°08'55 1.9
2014-Dec-14 09:33N 47°18' W 002°05'70 1.8
2014-Dec-12 19:19N 47°37' W 003°45'811.2
2014-Dec-12 18:33N 47°40' W 003°34'9 8.8
2014-Dec-12 17:33N 47°43' W 003°22'1 0.5
2014-Dec-12 16:31N 47°44' W 003°21'0 0.0
2014-Dec-12 15:31N 47°44' W 003°21'0 0.0
2014-Dec-12 14:33N 47°44' W 003°21'0 0.0
2014-Dec-12 13:34N 47°44' W 003°21'0 0.0
2014-Dec-12 12:34N 47°44' W 003°21'0 0.0
2014-Dec-12 11:33N 47°44' W 003°21'0 0.0
2014-Dec-12 10:33N 47°44' W 003°21'  
Track history (hours):
 
Tides and Currents Weather Stations Pressure Air Temp Water Temp Dewpoint Dewpoint Depression Visibility Wind Speed Wind Dir Waves Ship Positions

Eships Agamid

Last reported at 2014-Dec-22 10:26 UTC. Time now 2014-Dec-22 10:39 UTC.
Position N 47°08' W 002°26'.

Length 128 m; draft 6 m.

Type: Tanker. MMSI: 236355000.

Date/timePositionNaut miles runAvg speedWind from/ knotsBaromVisibWave heightAir tempDewpointWater temp
2014-Dec-22 10:26N 47°08' W 002°26'0 0.0
2014-Dec-22 08:14N 47°08' W 002°26'0 0.0
2014-Dec-22 07:25N 47°07' W 002°26'0 0.0
2014-Dec-22 00:26N 47°08' W 002°26'0 0.0
2014-Dec-21 22:12N 47°08' W 002°26'0 0.0
2014-Dec-21 10:07N 47°08' W 002°26'0 0.1
2014-Dec-21 09:33N 47°08' W 002°26'38 6.3
2014-Dec-21 03:33N 46°30' W 002°29'1212.3
2014-Dec-21 02:32N 46°21' W 002°17'1411.3
2014-Dec-21 01:19N 46°10' W 002°04'5610.8
2014-Dec-20 20:10N 45°35' W 001°03'1716.6
2014-Dec-20 19:09N 45°21' W 000°48'1016.3
2014-Dec-20 18:32N 45°12' W 000°44'36 1.0
2014-Dec-19 08:07N 45°37' W 001°19'39 9.8
2014-Dec-19 04:05N 46°06' W 001°59'1711.0
2014-Dec-19 02:31N 46°19' W 002°15'1111.1
2014-Dec-19 01:32N 46°28' W 002°24'1111.2
2014-Dec-19 00:33N 46°37' W 002°34'1211.4
2014-Dec-18 23:27N 46°48' W 002°41'39 4.8
2014-Dec-18 15:26N 47°18' W 002°05'0 0.0
2014-Dec-18 12:04N 47°18' W 002°05'0 0.0
2014-Dec-18 06:09N 47°18' W 002°05'0 0.0
2014-Dec-18 05:26N 47°18' W 002°05'0 0.0
2014-Dec-18 04:31N 47°18' W 002°05'0 0.0
2014-Dec-18 03:11N 47°18' W 002°05'31 1.6
2014-Dec-17 07:12N 46°58' W 002°41'27 8.7
2014-Dec-17 04:05N 46°34' W 002°23'5 9.9
2014-Dec-17 03:33N 46°30' W 002°18'1010.3
2014-Dec-17 02:33N 46°23' W 002°07'1010.2
2014-Dec-17 01:33N 46°16' W 001°56'10 9.8
2014-Dec-17 00:33N 46°10' W 001°45'10 9.6
2014-Dec-16 23:29N 46°07' W 001°31'1010.4
2014-Dec-16 22:33N 46°06' W 001°17'4 2.8
2014-Dec-16 21:10N 46°09' W 001°15'0 0.0
2014-Dec-16 20:33N 46°09' W 001°15'0 0.0
2014-Dec-16 19:33N 46°09' W 001°15'0 0.0
2014-Dec-16 18:33N 46°09' W 001°15'0 0.0
2014-Dec-16 17:33N 46°09' W 001°15'0 0.0
2014-Dec-16 16:33N 46°09' W 001°15'0 0.0
2014-Dec-16 15:33N 46°09' W 001°15'0 0.0
2014-Dec-16 14:33N 46°09' W 001°15'32 1.4
2014-Dec-15 15:11N 46°18' W 001°59'812.8
2014-Dec-15 14:33N 46°24' W 002°08'55 1.9
2014-Dec-14 09:33N 47°18' W 002°05'70 1.8
2014-Dec-12 19:19N 47°37' W 003°45'811.2
2014-Dec-12 18:33N 47°40' W 003°34'9 8.8
2014-Dec-12 17:33N 47°43' W 003°22'1 0.5
2014-Dec-12 16:31N 47°44' W 003°21'0 0.0
2014-Dec-12 15:31N 47°44' W 003°21'0 0.0
2014-Dec-12 14:33N 47°44' W 003°21'0 0.0
2014-Dec-12 13:34N 47°44' W 003°21'0 0.0
2014-Dec-12 12:34N 47°44' W 003°21'0 0.0
2014-Dec-12 11:33N 47°44' W 003°21'0 0.0
2014-Dec-12 10:33N 47°44' W 003°21'  

Dump ship's entire track history